sensor_id;sensor_type;location;lat;lon;timestamp;P1;durP1;ratioP1;P2;durP2;ratioP2
4642;SDS011;2334;48.710;9.622;2022-11-14T00:02:25;20.43;;;11.10;;
4642;SDS011;2334;48.710;9.622;2022-11-14T00:04:52;20.47;;;11.13;;
4642;SDS011;2334;48.710;9.622;2022-11-14T00:07:20;19.37;;;11.27;;
4642;SDS011;2334;48.710;9.622;2022-11-14T00:09:47;22.30;;;11.93;;
4642;SDS011;2334;48.710;9.622;2022-11-14T00:12:14;26.90;;;11.27;;
4642;SDS011;2334;48.710;9.622;2022-11-14T00:14:41;19.07;;;11.03;;
4642;SDS011;2334;48.710;9.622;2022-11-14T00:17:08;20.10;;;9.67;;
4642;SDS011;2334;48.710;9.622;2022-11-14T00:19:34;24.77;;;10.97;;
4642;SDS011;2334;48.710;9.622;2022-11-14T00:22:01;17.83;;;10.13;;
4642;SDS011;2334;48.710;9.622;2022-11-14T00:24:30;25.73;;;10.40;;
4642;SDS011;2334;48.710;9.622;2022-11-14T00:26:57;24.80;;;10.40;;
4642;SDS011;2334;48.710;9.622;2022-11-14T00:29:23;19.00;;;10.30;;
4642;SDS011;2334;48.710;9.622;2022-11-14T00:31:50;33.70;;;9.80;;
4642;SDS011;2334;48.710;9.622;2022-11-14T00:34:17;15.77;;;9.63;;
4642;SDS011;2334;48.710;9.622;2022-11-14T00:36:44;17.43;;;10.53;;
4642;SDS011;2334;48.710;9.622;2022-11-14T00:39:11;18.43;;;9.93;;
4642;SDS011;2334;48.710;9.622;2022-11-14T00:41:40;15.60;;;9.67;;
4642;SDS011;2334;48.710;9.622;2022-11-14T00:44:07;18.87;;;10.33;;
4642;SDS011;2334;48.710;9.622;2022-11-14T00:46:35;16.13;;;10.20;;
4642;SDS011;2334;48.710;9.622;2022-11-14T00:49:02;18.07;;;9.73;;
4642;SDS011;2334;48.710;9.622;2022-11-14T00:51:30;24.67;;;11.57;;
4642;SDS011;2334;48.710;9.622;2022-11-14T00:53:57;19.40;;;10.03;;
4642;SDS011;2334;48.710;9.622;2022-11-14T00:56:24;19.00;;;9.37;;
4642;SDS011;2334;48.710;9.622;2022-11-14T00:58:52;18.00;;;9.93;;
4642;SDS011;2334;48.710;9.622;2022-11-14T01:01:19;18.67;;;9.90;;
4642;SDS011;2334;48.710;9.622;2022-11-14T01:03:46;21.83;;;11.23;;
4642;SDS011;2334;48.710;9.622;2022-11-14T01:06:14;18.07;;;9.83;;
4642;SDS011;2334;48.710;9.622;2022-11-14T01:08:41;15.73;;;9.03;;
4642;SDS011;2334;48.710;9.622;2022-11-14T01:11:09;18.80;;;10.17;;
4642;SDS011;2334;48.710;9.622;2022-11-14T01:13:37;16.37;;;9.63;;
4642;SDS011;2334;48.710;9.622;2022-11-14T01:16:08;21.23;;;10.80;;
4642;SDS011;2334;48.710;9.622;2022-11-14T01:18:36;20.20;;;11.00;;
4642;SDS011;2334;48.710;9.622;2022-11-14T01:21:04;20.33;;;9.27;;
4642;SDS011;2334;48.710;9.622;2022-11-14T01:23:32;17.50;;;9.40;;
4642;SDS011;2334;48.710;9.622;2022-11-14T01:26:00;16.40;;;10.00;;
4642;SDS011;2334;48.710;9.622;2022-11-14T01:28:28;21.17;;;10.20;;
4642;SDS011;2334;48.710;9.622;2022-11-14T01:30:55;17.33;;;9.20;;
4642;SDS011;2334;48.710;9.622;2022-11-14T01:33:24;18.03;;;10.00;;
4642;SDS011;2334;48.710;9.622;2022-11-14T01:35:50;20.80;;;10.03;;
4642;SDS011;2334;48.710;9.622;2022-11-14T01:38:17;20.00;;;11.37;;
4642;SDS011;2334;48.710;9.622;2022-11-14T01:40:44;14.60;;;9.27;;
4642;SDS011;2334;48.710;9.622;2022-11-14T01:43:28;17.40;;;10.53;;
4642;SDS011;2334;48.710;9.622;2022-11-14T01:45:58;21.87;;;10.83;;
4642;SDS011;2334;48.710;9.622;2022-11-14T01:48:29;20.77;;;11.20;;
4642;SDS011;2334;48.710;9.622;2022-11-14T01:51:01;23.50;;;12.00;;
4642;SDS011;2334;48.710;9.622;2022-11-14T01:53:35;25.37;;;11.70;;
4642;SDS011;2334;48.710;9.622;2022-11-14T01:56:03;29.53;;;11.33;;
4642;SDS011;2334;48.710;9.622;2022-11-14T01:58:34;21.00;;;11.23;;
4642;SDS011;2334;48.710;9.622;2022-11-14T02:01:05;27.10;;;11.40;;
4642;SDS011;2334;48.710;9.622;2022-11-14T02:03:34;22.87;;;11.97;;
4642;SDS011;2334;48.710;9.622;2022-11-14T02:06:03;31.63;;;12.80;;
4642;SDS011;2334;48.710;9.622;2022-11-14T02:08:31;25.53;;;11.63;;
4642;SDS011;2334;48.710;9.622;2022-11-14T02:10:59;29.27;;;13.33;;
4642;SDS011;2334;48.710;9.622;2022-11-14T02:13:25;28.53;;;12.10;;
4642;SDS011;2334;48.710;9.622;2022-11-14T02:15:52;98.00;;;15.40;;
4642;SDS011;2334;48.710;9.622;2022-11-14T02:18:19;23.47;;;10.53;;
4642;SDS011;2334;48.710;9.622;2022-11-14T02:20:48;59.87;;;13.57;;
4642;SDS011;2334;48.710;9.622;2022-11-14T02:23:23;23.30;;;11.70;;
4642;SDS011;2334;48.710;9.622;2022-11-14T02:25:51;25.40;;;12.90;;
4642;SDS011;2334;48.710;9.622;2022-11-14T02:28:18;29.67;;;13.00;;
4642;SDS011;2334;48.710;9.622;2022-11-14T02:30:46;83.53;;;15.27;;
4642;SDS011;2334;48.710;9.622;2022-11-14T02:33:13;27.90;;;13.10;;
4642;SDS011;2334;48.710;9.622;2022-11-14T02:35:40;66.97;;;13.17;;
4642;SDS011;2334;48.710;9.622;2022-11-14T02:38:08;49.60;;;13.47;;
4642;SDS011;2334;48.710;9.622;2022-11-14T02:40:35;22.73;;;10.70;;
4642;SDS011;2334;48.710;9.622;2022-11-14T02:43:02;17.17;;;9.40;;
4642;SDS011;2334;48.710;9.622;2022-11-14T02:45:28;20.53;;;10.17;;
4642;SDS011;2334;48.710;9.622;2022-11-14T02:47:55;15.27;;;9.53;;
4642;SDS011;2334;48.710;9.622;2022-11-14T02:50:22;20.60;;;9.87;;
4642;SDS011;2334;48.710;9.622;2022-11-14T02:52:49;16.07;;;9.03;;
4642;SDS011;2334;48.710;9.622;2022-11-14T02:55:19;18.63;;;11.10;;
4642;SDS011;2334;48.710;9.622;2022-11-14T02:57:46;23.37;;;10.33;;
4642;SDS011;2334;48.710;9.622;2022-11-14T03:00:16;17.63;;;9.50;;
4642;SDS011;2334;48.710;9.622;2022-11-14T03:02:44;17.40;;;9.53;;
4642;SDS011;2334;48.710;9.622;2022-11-14T03:05:11;21.07;;;9.63;;
4642;SDS011;2334;48.710;9.622;2022-11-14T03:07:37;25.10;;;9.57;;
4642;SDS011;2334;48.710;9.622;2022-11-14T03:10:05;20.90;;;9.93;;
4642;SDS011;2334;48.710;9.622;2022-11-14T03:12:35;13.27;;;8.57;;
4642;SDS011;2334;48.710;9.622;2022-11-14T03:15:02;22.07;;;10.80;;
4642;SDS011;2334;48.710;9.622;2022-11-14T03:17:30;25.33;;;10.50;;
4642;SDS011;2334;48.710;9.622;2022-11-14T03:19:57;15.20;;;8.90;;
4642;SDS011;2334;48.710;9.622;2022-11-14T03:22:24;28.07;;;10.37;;
4642;SDS011;2334;48.710;9.622;2022-11-14T03:24:51;39.10;;;12.10;;
4642;SDS011;2334;48.710;9.622;2022-11-14T03:27:18;17.77;;;10.07;;
4642;SDS011;2334;48.710;9.622;2022-11-14T03:29:46;28.23;;;11.13;;
4642;SDS011;2334;48.710;9.622;2022-11-14T03:32:13;31.13;;;11.67;;
4642;SDS011;2334;48.710;9.622;2022-11-14T03:34:40;21.40;;;10.53;;
4642;SDS011;2334;48.710;9.622;2022-11-14T03:37:07;54.37;;;13.10;;
4642;SDS011;2334;48.710;9.622;2022-11-14T03:39:35;28.87;;;10.27;;
4642;SDS011;2334;48.710;9.622;2022-11-14T03:42:02;56.90;;;12.47;;
4642;SDS011;2334;48.710;9.622;2022-11-14T03:44:28;13.67;;;7.90;;
4642;SDS011;2334;48.710;9.622;2022-11-14T03:46:57;33.87;;;11.10;;
4642;SDS011;2334;48.710;9.622;2022-11-14T03:49:23;8.40;;;6.83;;
4642;SDS011;2334;48.710;9.622;2022-11-14T03:51:50;30.03;;;9.87;;
4642;SDS011;2334;48.710;9.622;2022-11-14T03:54:17;126.50;;;12.37;;
4642;SDS011;2334;48.710;9.622;2022-11-14T03:56:44;44.93;;;12.03;;
4642;SDS011;2334;48.710;9.622;2022-11-14T03:59:11;26.87;;;9.80;;
4642;SDS011;2334;48.710;9.622;2022-11-14T04:01:38;41.27;;;10.60;;
4642;SDS011;2334;48.710;9.622;2022-11-14T04:04:06;134.57;;;13.03;;
4642;SDS011;2334;48.710;9.622;2022-11-14T04:06:33;35.40;;;10.20;;
4642;SDS011;2334;48.710;9.622;2022-11-14T04:09:00;39.70;;;11.40;;
4642;SDS011;2334;48.710;9.622;2022-11-14T04:11:27;22.10;;;9.13;;
4642;SDS011;2334;48.710;9.622;2022-11-14T04:13:53;14.67;;;9.00;;
4642;SDS011;2334;48.710;9.622;2022-11-14T04:16:20;14.80;;;8.27;;
4642;SDS011;2334;48.710;9.622;2022-11-14T04:18:47;11.60;;;7.40;;
4642;SDS011;2334;48.710;9.622;2022-11-14T04:21:15;12.37;;;7.93;;
4642;SDS011;2334;48.710;9.622;2022-11-14T04:23:42;15.07;;;8.50;;
4642;SDS011;2334;48.710;9.622;2022-11-14T04:26:09;15.93;;;9.07;;
4642;SDS011;2334;48.710;9.622;2022-11-14T04:28:36;16.30;;;8.77;;
4642;SDS011;2334;48.710;9.622;2022-11-14T04:31:03;12.47;;;8.47;;
4642;SDS011;2334;48.710;9.622;2022-11-14T04:33:30;31.43;;;8.00;;
4642;SDS011;2334;48.710;9.622;2022-11-14T04:35:56;17.00;;;9.03;;
4642;SDS011;2334;48.710;9.622;2022-11-14T04:38:25;15.37;;;8.53;;
4642;SDS011;2334;48.710;9.622;2022-11-14T04:40:52;17.77;;;9.20;;
4642;SDS011;2334;48.710;9.622;2022-11-14T04:43:19;14.03;;;8.00;;
4642;SDS011;2334;48.710;9.622;2022-11-14T04:45:46;11.00;;;7.13;;
4642;SDS011;2334;48.710;9.622;2022-11-14T04:48:13;16.13;;;9.60;;
4642;SDS011;2334;48.710;9.622;2022-11-14T04:50:40;12.07;;;7.73;;
4642;SDS011;2334;48.710;9.622;2022-11-14T04:53:07;12.10;;;7.40;;
4642;SDS011;2334;48.710;9.622;2022-11-14T04:55:35;11.17;;;8.07;;
4642;SDS011;2334;48.710;9.622;2022-11-14T04:58:02;9.70;;;7.00;;
4642;SDS011;2334;48.710;9.622;2022-11-14T05:00:29;10.10;;;7.33;;
4642;SDS011;2334;48.710;9.622;2022-11-14T05:02:57;13.40;;;7.73;;
4642;SDS011;2334;48.710;9.622;2022-11-14T05:05:24;10.27;;;7.07;;
4642;SDS011;2334;48.710;9.622;2022-11-14T05:07:52;9.80;;;6.90;;
4642;SDS011;2334;48.710;9.622;2022-11-14T05:10:19;10.77;;;7.20;;
4642;SDS011;2334;48.710;9.622;2022-11-14T05:12:47;13.20;;;7.20;;
4642;SDS011;2334;48.710;9.622;2022-11-14T05:15:18;9.10;;;6.37;;
4642;SDS011;2334;48.710;9.622;2022-11-14T05:17:44;9.90;;;7.43;;
4642;SDS011;2334;48.710;9.622;2022-11-14T05:20:12;11.47;;;6.33;;
4642;SDS011;2334;48.710;9.622;2022-11-14T05:22:38;16.50;;;8.00;;
4642;SDS011;2334;48.710;9.622;2022-11-14T05:25:06;9.93;;;6.77;;
4642;SDS011;2334;48.710;9.622;2022-11-14T05:27:33;11.03;;;7.07;;
4642;SDS011;2334;48.710;9.622;2022-11-14T05:30:02;11.20;;;6.77;;
4642;SDS011;2334;48.710;9.622;2022-11-14T05:32:29;12.77;;;7.50;;
4642;SDS011;2334;48.710;9.622;2022-11-14T05:34:56;13.67;;;7.70;;
4642;SDS011;2334;48.710;9.622;2022-11-14T05:37:23;12.77;;;7.30;;
4642;SDS011;2334;48.710;9.622;2022-11-14T05:39:50;13.93;;;8.30;;
4642;SDS011;2334;48.710;9.622;2022-11-14T05:42:16;15.17;;;9.47;;
4642;SDS011;2334;48.710;9.622;2022-11-14T05:44:43;13.43;;;7.97;;
4642;SDS011;2334;48.710;9.622;2022-11-14T05:47:12;12.00;;;9.33;;
4642;SDS011;2334;48.710;9.622;2022-11-14T05:49:38;18.73;;;8.70;;
4642;SDS011;2334;48.710;9.622;2022-11-14T05:52:05;10.90;;;6.87;;
4642;SDS011;2334;48.710;9.622;2022-11-14T05:54:32;13.60;;;8.07;;
4642;SDS011;2334;48.710;9.622;2022-11-14T05:56:59;10.97;;;6.50;;
4642;SDS011;2334;48.710;9.622;2022-11-14T05:59:26;10.27;;;7.67;;
4642;SDS011;2334;48.710;9.622;2022-11-14T06:01:53;11.60;;;7.87;;
4642;SDS011;2334;48.710;9.622;2022-11-14T06:04:21;10.90;;;7.30;;
4642;SDS011;2334;48.710;9.622;2022-11-14T06:06:48;12.60;;;8.57;;
4642;SDS011;2334;48.710;9.622;2022-11-14T06:09:15;14.67;;;8.13;;
4642;SDS011;2334;48.710;9.622;2022-11-14T06:11:42;15.87;;;9.13;;
4642;SDS011;2334;48.710;9.622;2022-11-14T06:14:09;16.47;;;10.23;;
4642;SDS011;2334;48.710;9.622;2022-11-14T06:16:36;31.97;;;18.17;;
4642;SDS011;2334;48.710;9.622;2022-11-14T06:19:03;35.00;;;18.53;;
4642;SDS011;2334;48.710;9.622;2022-11-14T06:21:31;26.90;;;14.53;;
4642;SDS011;2334;48.710;9.622;2022-11-14T06:23:58;18.17;;;10.10;;
4642;SDS011;2334;48.710;9.622;2022-11-14T06:26:26;46.70;;;23.60;;
4642;SDS011;2334;48.710;9.622;2022-11-14T06:28:55;24.63;;;14.53;;
4642;SDS011;2334;48.710;9.622;2022-11-14T06:31:23;18.83;;;11.63;;
4642;SDS011;2334;48.710;9.622;2022-11-14T06:33:50;54.47;;;22.93;;
4642;SDS011;2334;48.710;9.622;2022-11-14T06:36:17;42.63;;;17.30;;
4642;SDS011;2334;48.710;9.622;2022-11-14T06:38:46;25.97;;;15.10;;
4642;SDS011;2334;48.710;9.622;2022-11-14T06:41:13;19.70;;;10.50;;
4642;SDS011;2334;48.710;9.622;2022-11-14T06:43:41;21.33;;;11.03;;
4642;SDS011;2334;48.710;9.622;2022-11-14T06:46:11;21.60;;;11.40;;
4642;SDS011;2334;48.710;9.622;2022-11-14T06:48:39;21.60;;;10.23;;
4642;SDS011;2334;48.710;9.622;2022-11-14T06:51:06;20.83;;;10.50;;
4642;SDS011;2334;48.710;9.622;2022-11-14T06:53:35;19.90;;;9.47;;
4642;SDS011;2334;48.710;9.622;2022-11-14T06:56:04;20.87;;;12.70;;
4642;SDS011;2334;48.710;9.622;2022-11-14T06:58:34;20.60;;;10.97;;
4642;SDS011;2334;48.710;9.622;2022-11-14T07:01:03;17.10;;;11.07;;
4642;SDS011;2334;48.710;9.622;2022-11-14T07:03:30;19.73;;;10.27;;
4642;SDS011;2334;48.710;9.622;2022-11-14T07:05:58;13.47;;;9.30;;
4642;SDS011;2334;48.710;9.622;2022-11-14T07:08:25;21.23;;;9.60;;
4642;SDS011;2334;48.710;9.622;2022-11-14T07:10:52;21.80;;;10.90;;
4642;SDS011;2334;48.710;9.622;2022-11-14T07:13:21;18.90;;;10.10;;
4642;SDS011;2334;48.710;9.622;2022-11-14T07:15:51;16.80;;;11.03;;
4642;SDS011;2334;48.710;9.622;2022-11-14T07:18:18;17.13;;;10.20;;
4642;SDS011;2334;48.710;9.622;2022-11-14T07:20:45;19.43;;;9.53;;
4642;SDS011;2334;48.710;9.622;2022-11-14T07:23:12;18.60;;;10.90;;
4642;SDS011;2334;48.710;9.622;2022-11-14T07:25:40;28.43;;;11.90;;
4642;SDS011;2334;48.710;9.622;2022-11-14T07:28:07;17.50;;;10.00;;
4642;SDS011;2334;48.710;9.622;2022-11-14T07:30:35;19.80;;;10.63;;
4642;SDS011;2334;48.710;9.622;2022-11-14T07:33:02;20.27;;;11.07;;
4642;SDS011;2334;48.710;9.622;2022-11-14T07:35:29;21.40;;;11.97;;
4642;SDS011;2334;48.710;9.622;2022-11-14T07:38:02;21.70;;;11.47;;
4642;SDS011;2334;48.710;9.622;2022-11-14T07:40:30;21.73;;;10.87;;
4642;SDS011;2334;48.710;9.622;2022-11-14T07:42:57;21.03;;;11.07;;
4642;SDS011;2334;48.710;9.622;2022-11-14T07:45:25;17.80;;;9.70;;
4642;SDS011;2334;48.710;9.622;2022-11-14T07:47:54;17.50;;;10.50;;
4642;SDS011;2334;48.710;9.622;2022-11-14T07:50:22;23.40;;;11.73;;
4642;SDS011;2334;48.710;9.622;2022-11-14T07:52:49;20.67;;;10.50;;
4642;SDS011;2334;48.710;9.622;2022-11-14T07:55:18;19.37;;;10.50;;
4642;SDS011;2334;48.710;9.622;2022-11-14T07:57:46;19.40;;;11.17;;
4642;SDS011;2334;48.710;9.622;2022-11-14T08:00:13;19.50;;;11.47;;
4642;SDS011;2334;48.710;9.622;2022-11-14T08:02:41;20.80;;;11.43;;
4642;SDS011;2334;48.710;9.622;2022-11-14T08:05:09;21.43;;;12.50;;
4642;SDS011;2334;48.710;9.622;2022-11-14T08:07:36;17.00;;;10.70;;
4642;SDS011;2334;48.710;9.622;2022-11-14T08:10:03;31.43;;;13.67;;
4642;SDS011;2334;48.710;9.622;2022-11-14T08:12:31;24.37;;;12.10;;
4642;SDS011;2334;48.710;9.622;2022-11-14T08:14:58;18.60;;;10.20;;
4642;SDS011;2334;48.710;9.622;2022-11-14T08:17:24;18.10;;;10.10;;
4642;SDS011;2334;48.710;9.622;2022-11-14T08:19:51;17.80;;;9.80;;
4642;SDS011;2334;48.710;9.622;2022-11-14T08:22:19;20.83;;;11.37;;
4642;SDS011;2334;48.710;9.622;2022-11-14T08:24:46;20.73;;;11.00;;
4642;SDS011;2334;48.710;9.622;2022-11-14T08:27:13;22.13;;;10.83;;
4642;SDS011;2334;48.710;9.622;2022-11-14T08:29:40;17.73;;;10.60;;
4642;SDS011;2334;48.710;9.622;2022-11-14T08:32:07;23.93;;;11.53;;
4642;SDS011;2334;48.710;9.622;2022-11-14T08:34:34;20.10;;;11.20;;
4642;SDS011;2334;48.710;9.622;2022-11-14T08:37:02;17.67;;;10.53;;
4642;SDS011;2334;48.710;9.622;2022-11-14T08:39:30;18.87;;;9.87;;
4642;SDS011;2334;48.710;9.622;2022-11-14T08:41:57;21.57;;;10.77;;
4642;SDS011;2334;48.710;9.622;2022-11-14T08:44:24;20.97;;;11.80;;
4642;SDS011;2334;48.710;9.622;2022-11-14T08:46:50;21.67;;;12.73;;
4642;SDS011;2334;48.710;9.622;2022-11-14T08:49:17;25.00;;;12.60;;
4642;SDS011;2334;48.710;9.622;2022-11-14T08:51:44;26.10;;;13.30;;
4642;SDS011;2334;48.710;9.622;2022-11-14T08:54:11;28.87;;;12.77;;
4642;SDS011;2334;48.710;9.622;2022-11-14T08:56:39;29.17;;;13.83;;
4642;SDS011;2334;48.710;9.622;2022-11-14T08:59:06;32.30;;;14.67;;
4642;SDS011;2334;48.710;9.622;2022-11-14T09:01:33;26.50;;;13.83;;
4642;SDS011;2334;48.710;9.622;2022-11-14T09:04:00;31.50;;;17.00;;
4642;SDS011;2334;48.710;9.622;2022-11-14T09:06:27;36.07;;;16.93;;
4642;SDS011;2334;48.710;9.622;2022-11-14T09:08:54;41.10;;;18.00;;
4642;SDS011;2334;48.710;9.622;2022-11-14T09:11:21;33.03;;;16.60;;
4642;SDS011;2334;48.710;9.622;2022-11-14T09:13:49;24.13;;;13.53;;
4642;SDS011;2334;48.710;9.622;2022-11-14T09:16:16;24.80;;;12.00;;
4642;SDS011;2334;48.710;9.622;2022-11-14T09:18:42;25.87;;;11.83;;
4642;SDS011;2334;48.710;9.622;2022-11-14T09:21:09;24.43;;;12.47;;
4642;SDS011;2334;48.710;9.622;2022-11-14T09:23:37;23.20;;;12.87;;
4642;SDS011;2334;48.710;9.622;2022-11-14T09:26:04;22.00;;;10.90;;
4642;SDS011;2334;48.710;9.622;2022-11-14T09:28:31;21.17;;;11.60;;
4642;SDS011;2334;48.710;9.622;2022-11-14T09:31:00;22.20;;;12.00;;
4642;SDS011;2334;48.710;9.622;2022-11-14T09:33:28;20.60;;;10.83;;
4642;SDS011;2334;48.710;9.622;2022-11-14T09:35:55;18.77;;;10.27;;
4642;SDS011;2334;48.710;9.622;2022-11-14T09:38:34;18.40;;;10.90;;
4642;SDS011;2334;48.710;9.622;2022-11-14T09:41:04;24.67;;;12.13;;
4642;SDS011;2334;48.710;9.622;2022-11-14T09:43:48;30.33;;;12.80;;
4642;SDS011;2334;48.710;9.622;2022-11-14T09:46:38;23.73;;;11.57;;
4642;SDS011;2334;48.710;9.622;2022-11-14T09:49:09;23.00;;;12.83;;
4642;SDS011;2334;48.710;9.622;2022-11-14T09:51:46;18.60;;;10.33;;
4642;SDS011;2334;48.710;9.622;2022-11-14T09:54:17;19.13;;;11.80;;
4642;SDS011;2334;48.710;9.622;2022-11-14T09:56:47;23.70;;;12.50;;
4642;SDS011;2334;48.710;9.622;2022-11-14T09:59:14;23.80;;;11.70;;
4642;SDS011;2334;48.710;9.622;2022-11-14T10:01:44;26.87;;;13.00;;
4642;SDS011;2334;48.710;9.622;2022-11-14T10:04:23;20.53;;;11.80;;
4642;SDS011;2334;48.710;9.622;2022-11-14T10:07:11;24.30;;;11.47;;
4642;SDS011;2334;48.710;9.622;2022-11-14T10:09:50;31.13;;;12.37;;
4642;SDS011;2334;48.710;9.622;2022-11-14T10:12:25;22.40;;;12.20;;
4642;SDS011;2334;48.710;9.622;2022-11-14T10:15:05;31.70;;;14.20;;
4642;SDS011;2334;48.710;9.622;2022-11-14T10:17:46;30.60;;;15.63;;
4642;SDS011;2334;48.710;9.622;2022-11-14T10:20:23;30.90;;;15.07;;
4642;SDS011;2334;48.710;9.622;2022-11-14T10:23:02;27.70;;;14.10;;
4642;SDS011;2334;48.710;9.622;2022-11-14T10:25:41;24.03;;;15.10;;
4642;SDS011;2334;48.710;9.622;2022-11-14T10:28:26;28.20;;;14.23;;
4642;SDS011;2334;48.710;9.622;2022-11-14T10:31:06;32.60;;;14.73;;
4642;SDS011;2334;48.710;9.622;2022-11-14T10:33:47;33.30;;;16.07;;
4642;SDS011;2334;48.710;9.622;2022-11-14T10:36:23;34.90;;;15.47;;
4642;SDS011;2334;48.710;9.622;2022-11-14T10:39:00;31.40;;;14.93;;
4642;SDS011;2334;48.710;9.622;2022-11-14T10:41:30;37.13;;;15.40;;
4642;SDS011;2334;48.710;9.622;2022-11-14T10:43:58;33.40;;;16.80;;
4642;SDS011;2334;48.710;9.622;2022-11-14T10:46:26;41.03;;;16.67;;
4642;SDS011;2334;48.710;9.622;2022-11-14T10:48:59;30.93;;;14.73;;
4642;SDS011;2334;48.710;9.622;2022-11-14T10:51:27;27.30;;;14.83;;
4642;SDS011;2334;48.710;9.622;2022-11-14T10:53:59;39.97;;;16.60;;
4642;SDS011;2334;48.710;9.622;2022-11-14T10:56:31;29.70;;;14.30;;
4642;SDS011;2334;48.710;9.622;2022-11-14T10:58:58;30.47;;;14.43;;
4642;SDS011;2334;48.710;9.622;2022-11-14T11:01:37;33.43;;;15.00;;
4642;SDS011;2334;48.710;9.622;2022-11-14T11:04:14;34.83;;;17.00;;
4642;SDS011;2334;48.710;9.622;2022-11-14T11:06:45;31.17;;;15.70;;
4642;SDS011;2334;48.710;9.622;2022-11-14T11:09:15;24.70;;;13.73;;
4642;SDS011;2334;48.710;9.622;2022-11-14T11:12:01;25.90;;;13.00;;
4642;SDS011;2334;48.710;9.622;2022-11-14T11:14:30;29.03;;;13.43;;
4642;SDS011;2334;48.710;9.622;2022-11-14T11:17:07;22.60;;;11.73;;
4642;SDS011;2334;48.710;9.622;2022-11-14T11:19:46;24.97;;;13.50;;
4642;SDS011;2334;48.710;9.622;2022-11-14T11:22:24;22.83;;;13.10;;
4642;SDS011;2334;48.710;9.622;2022-11-14T11:24:53;8.70;;;3.93;;
4642;SDS011;2334;48.710;9.622;2022-11-14T11:27:21;0.90;;;0.90;;
4642;SDS011;2334;48.710;9.622;2022-11-14T11:30:00;0.60;;;0.60;;
4642;SDS011;2334;48.710;9.622;2022-11-14T11:32:32;1.60;;;0.60;;
4642;SDS011;2334;48.710;9.622;2022-11-14T11:35:01;6.03;;;0.70;;
4642;SDS011;2334;48.710;9.622;2022-11-14T11:37:36;0.60;;;0.60;;
4642;SDS011;2334;48.710;9.622;2022-11-14T11:40:11;4.47;;;0.77;;
4642;SDS011;2334;48.710;9.622;2022-11-14T11:42:43;0.60;;;0.60;;
4642;SDS011;2334;48.710;9.622;2022-11-14T11:45:15;0.80;;;0.80;;
4642;SDS011;2334;48.710;9.622;2022-11-14T11:47:43;1.03;;;0.90;;
4642;SDS011;2334;48.710;9.622;2022-11-14T11:50:18;1.23;;;0.80;;
4642;SDS011;2334;48.710;9.622;2022-11-14T11:52:47;1.50;;;0.90;;
4642;SDS011;2334;48.710;9.622;2022-11-14T11:55:20;0.80;;;0.80;;
4642;SDS011;2334;48.710;9.622;2022-11-14T11:57:53;1.03;;;0.90;;
4642;SDS011;2334;48.710;9.622;2022-11-14T12:00:26;0.77;;;0.77;;
4642;SDS011;2334;48.710;9.622;2022-11-14T12:02:53;0.83;;;0.67;;
4642;SDS011;2334;48.710;9.622;2022-11-14T12:05:24;2.10;;;0.90;;
4642;SDS011;2334;48.710;9.622;2022-11-14T12:07:57;0.70;;;0.70;;
4642;SDS011;2334;48.710;9.622;2022-11-14T12:10:29;2.10;;;0.80;;
4642;SDS011;2334;48.710;9.622;2022-11-14T12:13:05;4.43;;;0.87;;
4642;SDS011;2334;48.710;9.622;2022-11-14T12:15:57;1.43;;;0.80;;
4642;SDS011;2334;48.710;9.622;2022-11-14T12:21:33;2.70;;;1.30;;
4642;SDS011;2334;48.710;9.622;2022-11-14T12:27:17;1.23;;;0.90;;
4642;SDS011;2334;48.710;9.622;2022-11-14T12:30:03;0.73;;;0.70;;
4642;SDS011;2334;48.710;9.622;2022-11-14T12:32:36;1.60;;;0.70;;
4642;SDS011;2334;48.710;9.622;2022-11-14T12:35:09;4.37;;;1.03;;
4642;SDS011;2334;48.710;9.622;2022-11-14T12:37:48;2.27;;;1.00;;
4642;SDS011;2334;48.710;9.622;2022-11-14T12:40:20;5.03;;;1.13;;
4642;SDS011;2334;48.710;9.622;2022-11-14T12:42:52;2.50;;;1.37;;
4642;SDS011;2334;48.710;9.622;2022-11-14T12:48:22;0.70;;;0.70;;
4642;SDS011;2334;48.710;9.622;2022-11-14T12:50:55;0.70;;;0.70;;
4642;SDS011;2334;48.710;9.622;2022-11-14T12:53:37;0.80;;;0.80;;
4642;SDS011;2334;48.710;9.622;2022-11-14T13:02:24;1.30;;;0.90;;
4642;SDS011;2334;48.710;9.622;2022-11-14T13:05:21;1.10;;;0.93;;
4642;SDS011;2334;48.710;9.622;2022-11-14T13:08:01;0.97;;;0.87;;
4642;SDS011;2334;48.710;9.622;2022-11-14T13:10:43;1.33;;;1.23;;
4642;SDS011;2334;48.710;9.622;2022-11-14T13:13:10;1.50;;;1.40;;
4642;SDS011;2334;48.710;9.622;2022-11-14T13:15:57;0.93;;;0.90;;
4642;SDS011;2334;48.710;9.622;2022-11-14T13:18:50;2.37;;;1.40;;
4642;SDS011;2334;48.710;9.622;2022-11-14T13:21:37;1.47;;;1.10;;
4642;SDS011;2334;48.710;9.622;2022-11-14T13:24:14;1.47;;;1.37;;
4642;SDS011;2334;48.710;9.622;2022-11-14T13:26:47;1.20;;;1.10;;
4642;SDS011;2334;48.710;9.622;2022-11-14T13:35:44;2.33;;;1.47;;
4642;SDS011;2334;48.710;9.622;2022-11-14T13:41:42;1.10;;;1.10;;
4642;SDS011;2334;48.710;9.622;2022-11-14T13:47:55;2.50;;;1.20;;
4642;SDS011;2334;48.710;9.622;2022-11-14T13:50:38;3.57;;;1.30;;
4642;SDS011;2334;48.710;9.622;2022-11-14T13:53:10;3.83;;;1.13;;
4642;SDS011;2334;48.710;9.622;2022-11-14T13:55:53;1.23;;;1.13;;
4642;SDS011;2334;48.710;9.622;2022-11-14T13:58:30;4.33;;;1.10;;
4642;SDS011;2334;48.710;9.622;2022-11-14T14:01:12;1.10;;;1.10;;
4642;SDS011;2334;48.710;9.622;2022-11-14T14:03:54;3.10;;;1.10;;
4642;SDS011;2334;48.710;9.622;2022-11-14T14:06:35;0.97;;;0.90;;
4642;SDS011;2334;48.710;9.622;2022-11-14T14:09:14;1.37;;;0.90;;
4642;SDS011;2334;48.710;9.622;2022-11-14T14:11:51;1.63;;;1.17;;
4642;SDS011;2334;48.710;9.622;2022-11-14T14:14:46;1.63;;;0.90;;
4642;SDS011;2334;48.710;9.622;2022-11-14T14:17:29;2.00;;;1.07;;
4642;SDS011;2334;48.710;9.622;2022-11-14T14:20:02;2.43;;;1.20;;
4642;SDS011;2334;48.710;9.622;2022-11-14T14:22:42;0.80;;;0.80;;
4642;SDS011;2334;48.710;9.622;2022-11-14T14:25:17;1.17;;;1.07;;
4642;SDS011;2334;48.710;9.622;2022-11-14T14:27:54;1.30;;;1.20;;
4642;SDS011;2334;48.710;9.622;2022-11-14T14:30:28;2.93;;;1.33;;
4642;SDS011;2334;48.710;9.622;2022-11-14T14:33:03;2.43;;;1.60;;
4642;SDS011;2334;48.710;9.622;2022-11-14T14:35:36;2.40;;;1.20;;
4642;SDS011;2334;48.710;9.622;2022-11-14T14:38:09;1.00;;;0.90;;
4642;SDS011;2334;48.710;9.622;2022-11-14T14:40:38;1.20;;;1.10;;
4642;SDS011;2334;48.710;9.622;2022-11-14T14:43:12;2.10;;;1.13;;
4642;SDS011;2334;48.710;9.622;2022-11-14T14:45:53;1.43;;;1.10;;
4642;SDS011;2334;48.710;9.622;2022-11-14T14:48:23;2.13;;;1.20;;
4642;SDS011;2334;48.710;9.622;2022-11-14T14:50:53;1.40;;;1.30;;
4642;SDS011;2334;48.710;9.622;2022-11-14T14:53:21;1.73;;;0.97;;
4642;SDS011;2334;48.710;9.622;2022-11-14T14:55:51;1.23;;;1.10;;
4642;SDS011;2334;48.710;9.622;2022-11-14T14:58:24;3.00;;;1.10;;
4642;SDS011;2334;48.710;9.622;2022-11-14T15:00:54;1.13;;;1.03;;
4642;SDS011;2334;48.710;9.622;2022-11-14T15:03:26;4.60;;;1.17;;
4642;SDS011;2334;48.710;9.622;2022-11-14T15:05:59;1.20;;;1.10;;
4642;SDS011;2334;48.710;9.622;2022-11-14T15:08:28;4.73;;;1.70;;
4642;SDS011;2334;48.710;9.622;2022-11-14T15:10:57;1.47;;;1.37;;
4642;SDS011;2334;48.710;9.622;2022-11-14T15:13:26;3.20;;;1.33;;
4642;SDS011;2334;48.710;9.622;2022-11-14T15:15:54;1.60;;;1.50;;
4642;SDS011;2334;48.710;9.622;2022-11-14T15:18:23;1.10;;;1.10;;
4642;SDS011;2334;48.710;9.622;2022-11-14T15:21:05;1.00;;;1.00;;
4642;SDS011;2334;48.710;9.622;2022-11-14T15:23:39;1.20;;;1.10;;
4642;SDS011;2334;48.710;9.622;2022-11-14T15:26:10;3.43;;;2.17;;
4642;SDS011;2334;48.710;9.622;2022-11-14T15:28:39;2.93;;;1.13;;
4642;SDS011;2334;48.710;9.622;2022-11-14T15:31:11;3.30;;;1.33;;
4642;SDS011;2334;48.710;9.622;2022-11-14T15:33:44;7.87;;;1.70;;
4642;SDS011;2334;48.710;9.622;2022-11-14T15:36:25;1.23;;;1.10;;
4642;SDS011;2334;48.710;9.622;2022-11-14T15:39:02;4.50;;;1.30;;
4642;SDS011;2334;48.710;9.622;2022-11-14T15:41:31;1.50;;;1.40;;
4642;SDS011;2334;48.710;9.622;2022-11-14T15:43:58;3.30;;;1.13;;
4642;SDS011;2334;48.710;9.622;2022-11-14T15:46:47;2.37;;;1.30;;